createdAt,value
2022-11-08T00:00:45.843Z,84.99
2022-11-08T00:03:13.969Z,84.60
2022-11-08T00:06:00.362Z,84.95
2022-11-08T00:08:46.699Z,84.90
2022-11-08T00:11:33.282Z,84.85
2022-11-08T00:14:02.213Z,84.73
2022-11-08T00:16:32.762Z,84.98
2022-11-08T00:19:00.769Z,84.98
2022-11-08T00:21:29.908Z,84.64
2022-11-08T00:23:57.831Z,84.95
2022-11-08T00:26:25.796Z,84.95
2022-11-08T00:28:56.280Z,84.66
2022-11-08T00:31:24.255Z,85.03
2022-11-08T00:33:52.241Z,84.65
2022-11-08T00:36:20.474Z,84.97
2022-11-08T00:38:48.435Z,85.10
2022-11-08T00:41:16.494Z,84.79
2022-11-08T00:43:45.378Z,85.31
2022-11-08T00:46:13.290Z,84.80
2022-11-08T00:48:41.225Z,84.76
2022-11-08T00:51:13.528Z,84.96
2022-11-08T00:53:41.984Z,84.93
2022-11-08T00:56:13.681Z,85.42
2022-11-08T00:58:45.629Z,84.63
2022-11-08T01:01:18.730Z,85.49
2022-11-08T01:03:47.828Z,85.05
2022-11-08T01:06:17.995Z,85.24
2022-11-08T01:08:46.598Z,85.24
2022-11-08T01:11:22.347Z,85.27
2022-11-08T01:13:51.112Z,85.12
2022-11-08T01:16:22.998Z,85.33
2022-11-08T01:18:54.250Z,85.60
2022-11-08T01:21:22.830Z,84.97
2022-11-08T01:23:51.590Z,85.16
2022-11-08T01:26:23.154Z,84.98
2022-11-08T01:28:51.530Z,85.27
2022-11-08T01:31:22.404Z,85.02
2022-11-08T01:33:54.799Z,85.24
2022-11-08T01:36:26.802Z,85.35
2022-11-08T01:38:56.036Z,85.25
2022-11-08T01:41:26.934Z,85.08
2022-11-08T01:43:59.671Z,85.23
2022-11-08T01:46:35.126Z,84.99
2022-11-08T01:49:19.618Z,84.81
2022-11-08T01:51:56.768Z,85.71
2022-11-08T01:54:31.610Z,85.49
2022-11-08T01:57:04.400Z,85.05
2022-11-08T01:59:34.940Z,85.70
2022-11-08T02:02:03.242Z,85.67
2022-11-08T02:04:32.432Z,85.71
2022-11-08T02:07:01.752Z,85.50
2022-11-08T02:09:31.127Z,85.51
2022-11-08T02:12:02.133Z,85.58
2022-11-08T02:14:30.256Z,85.69
2022-11-08T02:16:58.302Z,85.77
2022-11-08T02:19:49.287Z,85.45
2022-11-08T02:22:42.143Z,85.74
2022-11-08T02:25:10.435Z,85.19
2022-11-08T02:27:40.238Z,85.87
2022-11-08T02:30:08.938Z,85.29
2022-11-08T02:32:44.031Z,85.21
2022-11-08T02:35:18.317Z,85.32
2022-11-08T02:37:49.695Z,85.22
2022-11-08T02:40:17.693Z,85.31
2022-11-08T02:42:45.699Z,85.52
2022-11-08T02:45:16.425Z,85.33
2022-11-08T02:47:46.191Z,85.42
2022-11-08T02:50:14.200Z,85.33
2022-11-08T02:52:42.365Z,85.43
2022-11-08T02:55:10.393Z,85.79
2022-11-08T02:57:39.577Z,85.82
2022-11-08T03:00:09.203Z,85.46
2022-11-08T03:02:36.940Z,85.65
2022-11-08T03:05:05.232Z,85.70
2022-11-08T03:07:33.562Z,85.28
2022-11-08T03:10:01.571Z,85.44
2022-11-08T03:12:31.662Z,85.16
2022-11-08T03:15:01.302Z,85.24
2022-11-08T03:17:29.921Z,85.53
2022-11-08T03:20:00.449Z,85.51
2022-11-08T03:22:30.365Z,85.13
2022-11-08T03:24:58.602Z,85.65
2022-11-08T03:27:26.593Z,85.05
2022-11-08T03:29:56.340Z,85.44
2022-11-08T03:32:24.049Z,85.50
2022-11-08T03:34:52.116Z,85.23
2022-11-08T03:37:20.327Z,85.54
2022-11-08T03:39:48.254Z,85.63
2022-11-08T03:42:16.219Z,84.85
2022-11-08T03:44:45.923Z,85.45
2022-11-08T03:47:13.625Z,85.50
2022-11-08T03:49:41.528Z,85.26
2022-11-08T03:52:09.810Z,85.42
2022-11-08T03:54:37.761Z,85.34
2022-11-08T03:57:05.723Z,85.31
2022-11-08T03:59:34.578Z,85.08
2022-11-08T04:02:02.716Z,85.35
2022-11-08T04:04:30.861Z,85.04
2022-11-08T04:07:00.117Z,85.01
2022-11-08T04:09:28.129Z,85.23
2022-11-08T04:12:16.125Z,85.02
2022-11-08T04:15:02.520Z,84.75
2022-11-08T04:17:52.959Z,84.98
2022-11-08T04:20:41.737Z,84.53
2022-11-08T04:23:10.614Z,84.57
2022-11-08T04:25:38.556Z,84.52
2022-11-08T04:28:07.288Z,85.05
2022-11-08T04:30:37.796Z,84.54
2022-11-08T04:33:07.761Z,84.84
2022-11-08T04:35:35.752Z,84.31
2022-11-08T04:38:03.801Z,84.46
2022-11-08T04:40:32.460Z,84.44
2022-11-08T04:43:00.385Z,84.28
2022-11-08T04:45:29.776Z,84.84
2022-11-08T04:47:57.772Z,84.42
2022-11-08T04:51:26.265Z,83.92
2022-11-08T04:53:55.997Z,84.31
2022-11-08T04:56:24.269Z,84.52
2022-11-08T04:58:56.173Z,84.19
2022-11-08T05:01:27.140Z,84.10
2022-11-08T05:03:55.460Z,83.67
2022-11-08T05:06:32.438Z,84.20
2022-11-08T05:09:01.365Z,83.85
2022-11-08T05:11:31.148Z,84.06
2022-11-08T05:13:59.843Z,84.05
2022-11-08T05:16:30.837Z,84.06
2022-11-08T05:19:00.094Z,83.29
2022-11-08T05:21:47.622Z,84.16
2022-11-08T05:24:18.514Z,83.42
2022-11-08T05:26:49.841Z,83.66
2022-11-08T05:29:18.179Z,83.76
2022-11-08T05:31:46.474Z,83.64
2022-11-08T05:34:15.467Z,83.84
2022-11-08T05:36:43.448Z,83.30
2022-11-08T05:39:11.440Z,83.72
2022-11-08T05:41:39.640Z,83.44
2022-11-08T05:44:07.575Z,83.68
2022-11-08T05:46:35.924Z,82.96
2022-11-08T05:49:04.840Z,83.33
2022-11-08T05:51:33.119Z,83.20
2022-11-08T05:54:01.222Z,83.40
2022-11-08T05:56:30.273Z,83.27
2022-11-08T05:58:58.304Z,83.66
2022-11-08T06:01:26.356Z,83.56
2022-11-08T06:03:54.396Z,83.39
2022-11-08T06:06:23.446Z,83.28
2022-11-08T06:08:52.908Z,83.12
2022-11-08T06:11:25.109Z,83.22
2022-11-08T06:13:54.860Z,83.32
2022-11-08T06:16:23.650Z,82.91
2022-11-08T06:18:51.779Z,83.55
2022-11-08T06:21:22.118Z,83.46
2022-11-08T06:23:54.496Z,83.47
2022-11-08T06:26:24.245Z,82.63
2022-11-08T06:28:53.414Z,83.08
2022-11-08T06:31:21.418Z,83.17
2022-11-08T06:33:49.450Z,83.12
2022-11-08T06:36:17.679Z,83.39
2022-11-08T06:38:45.632Z,83.06
2022-11-08T06:41:19.744Z,83.39
2022-11-08T06:43:49.330Z,82.77
2022-11-08T06:46:17.578Z,83.11
2022-11-08T06:48:46.679Z,82.90
2022-11-08T06:51:14.881Z,82.75
2022-11-08T06:53:43.207Z,83.15
2022-11-08T06:56:13.763Z,83.57
2022-11-08T06:58:41.942Z,82.83
2022-11-08T07:01:11.681Z,82.87
2022-11-08T07:03:42.003Z,82.48
2022-11-08T07:06:10.324Z,82.78
2022-11-08T07:08:38.673Z,82.64
2022-11-08T07:11:07.904Z,83.09
2022-11-08T07:13:35.936Z,82.63
2022-11-08T07:16:04.295Z,82.84
2022-11-08T07:18:32.496Z,82.75
2022-11-08T07:21:02.015Z,82.60
2022-11-08T07:23:30.333Z,82.95
2022-11-08T07:26:06.231Z,82.60
2022-11-08T07:28:34.277Z,82.82
2022-11-08T07:31:05.877Z,82.84
2022-11-08T07:33:34.975Z,82.76
2022-11-08T07:36:03.357Z,82.70
2022-11-08T07:38:31.657Z,82.34
2022-11-08T07:41:01.118Z,82.79
2022-11-08T07:43:30.696Z,82.83
2022-11-08T07:46:01.622Z,82.22
2022-11-08T07:48:32.879Z,82.70
2022-11-08T07:51:00.965Z,82.35
2022-11-08T07:53:29.121Z,82.53
2022-11-08T07:55:59.136Z,82.22
2022-11-08T07:58:27.247Z,82.21
2022-11-08T08:01:00.542Z,82.24
2022-11-08T08:03:29.159Z,82.40
2022-11-08T08:06:00.955Z,82.10
2022-11-08T08:08:30.543Z,82.79
2022-11-08T08:11:02.662Z,82.92
2022-11-08T08:13:30.965Z,82.62
2022-11-08T08:16:01.260Z,82.42
2022-11-08T08:18:32.657Z,82.51
2022-11-08T08:21:00.828Z,82.33
2022-11-08T08:23:29.146Z,82.36
2022-11-08T08:25:58.666Z,82.61
2022-11-08T08:28:26.636Z,82.34
2022-11-08T08:30:54.563Z,82.94
2022-11-08T08:33:28.764Z,82.87
2022-11-08T08:35:57.802Z,82.62
2022-11-08T08:38:25.902Z,82.73
2022-11-08T08:40:54.059Z,82.44
2022-11-08T08:43:22.495Z,82.60
2022-11-08T08:45:50.993Z,82.85
2022-11-08T08:48:19.634Z,82.71
2022-11-08T08:50:47.935Z,82.33
2022-11-08T08:53:16.119Z,82.76
2022-11-08T08:55:44.915Z,82.30
2022-11-08T08:58:12.980Z,82.42
2022-11-08T09:03:29.665Z,83.06
2022-11-08T09:06:01.181Z,82.83
2022-11-08T09:08:30.375Z,82.71
2022-11-08T09:11:01.192Z,82.46
2022-11-08T09:13:33.229Z,82.34
2022-11-08T09:16:03.380Z,83.19
2022-11-08T09:18:33.249Z,82.32
2022-11-08T09:21:03.999Z,83.38
2022-11-08T09:23:32.831Z,83.05
2022-11-08T09:26:04.665Z,82.75
2022-11-08T09:28:34.802Z,82.74
2022-11-08T09:31:10.935Z,83.33
2022-11-08T09:33:40.732Z,83.19
2022-11-08T09:36:12.850Z,83.22
2022-11-08T09:38:44.417Z,83.55
2022-11-08T09:41:18.502Z,82.75
2022-11-08T09:44:09.566Z,82.82
2022-11-08T09:46:56.908Z,83.47
2022-11-08T09:49:34.838Z,83.01
2022-11-08T09:52:06.070Z,83.23
2022-11-08T09:54:45.221Z,83.22
2022-11-08T09:57:36.418Z,83.43
2022-11-08T10:00:09.160Z,83.29
2022-11-08T10:02:37.731Z,83.34
2022-11-08T10:05:13.362Z,82.94
2022-11-08T10:07:55.193Z,83.46
2022-11-08T10:10:38.744Z,83.13
2022-11-08T10:13:27.820Z,83.57
2022-11-08T10:16:11.695Z,83.69
2022-11-08T10:19:00.956Z,83.11
2022-11-08T10:21:31.924Z,83.23
2022-11-08T10:24:17.526Z,83.48
2022-11-08T10:26:48.703Z,83.11
2022-11-08T10:29:44.110Z,83.20
2022-11-08T10:32:12.753Z,83.80
2022-11-08T10:34:52.029Z,83.93
2022-11-08T10:37:20.951Z,83.29
2022-11-08T10:40:02.450Z,83.38
2022-11-08T10:42:46.333Z,84.12
2022-11-08T10:45:15.669Z,83.60
2022-11-08T10:47:47.748Z,83.77
2022-11-08T10:50:21.341Z,84.18
2022-11-08T10:53:14.880Z,83.57
2022-11-08T10:55:54.393Z,83.59
2022-11-08T10:58:39.538Z,83.51
2022-11-08T11:01:19.713Z,84.29
2022-11-08T11:03:50.348Z,84.14
2022-11-08T11:06:30.518Z,83.89
2022-11-08T11:09:01.647Z,84.35
2022-11-08T11:11:32.557Z,84.18
2022-11-08T11:14:11.793Z,84.32
2022-11-08T11:16:57.259Z,84.09
2022-11-08T11:19:27.542Z,84.32
2022-11-08T11:22:07.374Z,84.05
2022-11-08T11:24:37.532Z,84.42
2022-11-08T11:27:08.176Z,84.03
2022-11-08T11:29:38.514Z,84.34
2022-11-08T11:32:38.392Z,84.32
2022-11-08T11:35:11.003Z,84.58
2022-11-08T11:37:43.930Z,83.78
2022-11-08T11:40:47.708Z,83.94
2022-11-08T11:43:39.502Z,84.25
2022-11-08T11:46:22.289Z,84.09
2022-11-08T11:49:00.029Z,84.22
2022-11-08T11:51:31.199Z,84.35
2022-11-08T11:54:01.216Z,84.05
2022-11-08T11:56:51.709Z,84.24
2022-11-08T11:59:51.460Z,84.32
2022-11-08T12:02:53.633Z,83.88
2022-11-08T12:05:40.431Z,84.65
2022-11-08T12:08:18.302Z,83.88
2022-11-08T12:10:58.759Z,84.37
2022-11-08T12:13:54.823Z,84.13
2022-11-08T12:16:31.895Z,84.36
2022-11-08T12:19:10.018Z,84.09
2022-11-08T12:21:47.104Z,84.15
2022-11-08T12:24:37.583Z,84.55
2022-11-08T12:27:44.800Z,84.32
2022-11-08T12:30:21.493Z,84.04
2022-11-08T12:33:23.018Z,84.69
2022-11-08T12:36:21.737Z,84.27
2022-11-08T12:39:06.513Z,84.45
2022-11-08T12:41:59.109Z,84.31
2022-11-08T12:44:49.831Z,84.65
2022-11-08T12:47:36.275Z,84.59
2022-11-08T12:50:48.733Z,84.40
2022-11-08T12:53:37.526Z,84.66
2022-11-08T12:56:13.322Z,84.75
2022-11-08T12:58:48.191Z,84.60
2022-11-08T13:01:19.203Z,84.66
2022-11-08T13:03:54.498Z,84.34
2022-11-08T13:06:36.808Z,84.83
2022-11-08T13:09:07.456Z,85.03
2022-11-08T13:11:59.316Z,84.50
2022-11-08T13:14:29.875Z,84.71
2022-11-08T13:17:18.140Z,85.06
2022-11-08T13:19:53.696Z,85.01
2022-11-08T13:22:30.814Z,84.81
2022-11-08T13:25:01.238Z,84.58
2022-11-08T13:27:37.067Z,84.59
2022-11-08T13:30:17.377Z,84.69
2022-11-08T13:33:08.244Z,85.18
2022-11-08T13:36:15.259Z,85.21
2022-11-08T13:39:24.224Z,84.62
2022-11-08T13:42:18.406Z,84.67
2022-11-08T13:44:55.210Z,85.21
2022-11-08T13:47:35.242Z,84.56
2022-11-08T13:50:30.651Z,85.06
2022-11-08T13:53:11.528Z,84.73
2022-11-08T13:55:45.299Z,84.44
2022-11-08T13:58:36.119Z,84.93
2022-11-08T14:01:38.444Z,85.03
2022-11-08T14:04:39.333Z,85.11
2022-11-08T14:07:25.586Z,84.56
2022-11-08T14:10:00.874Z,84.59
2022-11-08T14:12:41.203Z,84.63
2022-11-08T14:15:34.444Z,85.18
2022-11-08T14:18:06.836Z,85.20
2022-11-08T14:20:40.393Z,85.22
2022-11-08T14:23:20.783Z,85.42
2022-11-08T14:25:59.945Z,85.34
2022-11-08T14:28:30.424Z,84.97
2022-11-08T14:31:00.120Z,84.75
2022-11-08T14:33:31.734Z,85.33
2022-11-08T14:36:08.521Z,84.84
2022-11-08T14:38:51.532Z,85.08
2022-11-08T14:41:30.802Z,85.11
2022-11-08T14:44:01.285Z,84.73
2022-11-08T14:46:41.709Z,85.41
2022-11-08T14:49:11.749Z,85.26
2022-11-08T14:51:40.146Z,85.18
2022-11-08T14:54:41.480Z,84.90
2022-11-08T14:57:32.176Z,84.67
2022-11-08T15:00:22.152Z,85.01
2022-11-08T15:02:54.043Z,85.10
2022-11-08T15:05:34.040Z,85.28
2022-11-08T15:08:05.964Z,85.17
2022-11-08T15:10:34.138Z,85.13
2022-11-08T15:13:04.193Z,85.36
2022-11-08T15:15:34.842Z,85.23
2022-11-08T15:18:18.695Z,85.03
2022-11-08T15:20:58.338Z,84.74
2022-11-08T15:23:36.249Z,84.77
2022-11-08T15:26:04.322Z,84.58
2022-11-08T15:28:34.901Z,85.21
2022-11-08T15:31:06.509Z,84.87
2022-11-08T15:33:41.740Z,84.73
2022-11-08T15:36:25.710Z,85.39
2022-11-08T15:38:53.698Z,85.17
2022-11-08T15:41:35.418Z,84.86
2022-11-08T15:44:17.320Z,84.88
2022-11-08T15:46:45.680Z,84.85
2022-11-08T15:49:28.642Z,84.90
2022-11-08T15:52:02.096Z,84.89
2022-11-08T15:54:30.148Z,84.91
2022-11-08T15:56:58.362Z,85.39
2022-11-08T15:59:30.490Z,85.08
2022-11-08T16:02:03.442Z,85.42
2022-11-08T16:04:31.541Z,85.17
2022-11-08T16:06:59.859Z,84.82
2022-11-08T16:09:27.887Z,84.75
2022-11-08T16:11:56.415Z,84.75
2022-11-08T16:14:26.830Z,84.82
2022-11-08T16:16:55.721Z,84.59
2022-11-08T16:19:25.626Z,84.79
2022-11-08T16:21:54.387Z,85.26
2022-11-08T16:24:22.362Z,84.69
2022-11-08T16:26:50.508Z,84.85
2022-11-08T16:29:24.599Z,85.19
2022-11-08T16:31:52.894Z,85.42
2022-11-08T16:34:20.971Z,85.41
2022-11-08T16:36:52.618Z,85.33
2022-11-08T16:39:26.685Z,85.19
2022-11-08T16:42:50.540Z,84.77
2022-11-08T16:46:03.396Z,85.37
2022-11-08T16:48:27.029Z,84.91
2022-11-08T16:51:03.299Z,84.88
2022-11-08T16:53:31.681Z,85.04
2022-11-08T16:55:59.883Z,85.65
2022-11-08T16:58:30.997Z,85.45
2022-11-08T17:00:59.174Z,85.06
2022-11-08T17:03:31.435Z,85.60
2022-11-08T17:06:00.931Z,85.04
2022-11-08T17:08:28.998Z,85.11
2022-11-08T17:10:57.186Z,85.09
2022-11-08T17:13:26.249Z,85.05
2022-11-08T17:15:56.149Z,85.10
2022-11-08T17:18:24.309Z,84.81
2022-11-08T17:20:53.335Z,85.52
2022-11-08T17:23:23.129Z,85.27
2022-11-08T17:25:51.092Z,85.04
2022-11-08T17:28:19.384Z,85.31
2022-11-08T17:30:47.675Z,85.13
2022-11-08T17:33:15.787Z,85.24
2022-11-08T17:35:44.886Z,85.05
2022-11-08T17:38:13.544Z,85.56
2022-11-08T17:40:42.810Z,84.85
2022-11-08T17:43:12.603Z,85.48
2022-11-08T17:45:40.921Z,85.52
2022-11-08T17:48:08.883Z,85.40
2022-11-08T17:50:37.136Z,85.57
2022-11-08T17:53:05.054Z,85.46
2022-11-08T17:55:33.085Z,85.25
2022-11-08T17:58:02.379Z,85.26
2022-11-08T18:00:30.453Z,85.60
2022-11-08T18:02:58.465Z,85.33
2022-11-08T18:05:26.678Z,85.02
2022-11-08T18:07:54.653Z,85.19
2022-11-08T18:10:22.600Z,85.48
2022-11-08T18:12:50.746Z,85.36
2022-11-08T18:15:18.857Z,85.12
2022-11-08T18:17:46.860Z,85.15
2022-11-08T18:20:14.935Z,85.13
2022-11-08T18:22:43.082Z,85.11
2022-11-08T18:25:11.091Z,85.44
2022-11-08T18:27:40.591Z,85.32
2022-11-08T18:30:09.003Z,85.36
2022-11-08T18:32:37.404Z,85.62
2022-11-08T18:35:07.554Z,85.32
2022-11-08T18:37:35.913Z,85.95
2022-11-08T18:40:04.126Z,85.42
2022-11-08T18:42:32.485Z,85.61
2022-11-08T18:45:00.531Z,85.86
2022-11-08T18:47:29.212Z,85.54
2022-11-08T18:50:01.841Z,86.17
2022-11-08T18:52:31.719Z,85.80
2022-11-08T18:54:59.824Z,86.18
2022-11-08T18:57:27.972Z,85.46
2022-11-08T19:00:00.689Z,85.77
2022-11-08T19:02:33.381Z,85.71
2022-11-08T19:05:01.297Z,85.71
2022-11-08T19:07:31.397Z,85.90
2022-11-08T19:10:00.755Z,86.04
2022-11-08T19:12:30.647Z,85.55
2022-11-08T19:14:58.690Z,85.07
2022-11-08T19:17:27.645Z,85.88
2022-11-08T19:19:55.610Z,85.36
2022-11-08T19:22:23.730Z,85.88
2022-11-08T19:24:53.391Z,85.69
2022-11-08T19:27:21.225Z,85.52
2022-11-08T19:29:49.394Z,85.80
2022-11-08T19:32:18.691Z,85.39
2022-11-08T19:34:47.683Z,85.93
2022-11-08T19:37:15.717Z,85.24
2022-11-08T19:39:44.584Z,85.56
2022-11-08T19:42:12.532Z,85.83
2022-11-08T19:44:40.506Z,85.64
2022-11-08T19:47:10.285Z,85.21
2022-11-08T19:49:38.698Z,86.11
2022-11-08T19:52:06.684Z,85.80
2022-11-08T19:54:36.741Z,85.54
2022-11-08T19:57:06.177Z,85.18
2022-11-08T19:59:34.732Z,85.49
2022-11-08T20:02:03.034Z,85.55
2022-11-08T20:04:31.386Z,85.52
2022-11-08T20:06:59.376Z,85.32
2022-11-08T20:09:30.810Z,85.45
2022-11-08T20:11:59.290Z,85.33
2022-11-08T20:14:27.224Z,85.68
2022-11-08T20:16:58.363Z,86.00
2022-11-08T20:19:26.293Z,85.49
2022-11-08T20:21:58.330Z,85.25
2022-11-08T20:24:26.448Z,85.52
2022-11-08T20:26:55.802Z,85.47
2022-11-08T20:29:23.825Z,85.82
2022-11-08T20:31:53.660Z,85.61
2022-11-08T20:34:21.825Z,85.72
2022-11-08T20:36:49.816Z,85.74
2022-11-08T20:39:18.298Z,85.68
2022-11-08T20:41:46.315Z,85.70
2022-11-08T20:44:15.313Z,85.96
2022-11-08T20:46:43.650Z,85.81
2022-11-08T20:49:11.661Z,85.91
2022-11-08T20:51:39.671Z,86.21
2022-11-08T20:54:09.757Z,85.82
2022-11-08T20:56:37.785Z,85.59
2022-11-08T20:59:05.803Z,86.09
2022-11-08T21:01:36.427Z,85.67
2022-11-08T21:04:04.759Z,85.80
2022-11-08T21:06:36.190Z,85.51
2022-11-08T21:09:34.289Z,85.65
2022-11-08T21:11:55.810Z,85.35
2022-11-08T21:14:25.511Z,85.66
2022-11-08T21:17:20.310Z,85.72
2022-11-08T21:19:41.946Z,86.11
2022-11-08T21:22:15.764Z,85.62
2022-11-08T21:24:45.626Z,85.73
2022-11-08T21:27:14.330Z,85.43
2022-11-08T21:29:42.436Z,86.06
2022-11-08T21:32:10.424Z,85.86
2022-11-08T21:34:39.742Z,85.83
2022-11-08T21:37:10.590Z,85.88
2022-11-08T21:39:38.519Z,85.92
2022-11-08T21:42:06.657Z,86.00
2022-11-08T21:44:34.709Z,85.34
2022-11-08T21:47:02.594Z,85.62
2022-11-08T21:49:31.481Z,86.35
2022-11-08T21:51:59.471Z,85.57
2022-11-08T21:54:27.372Z,85.89
2022-11-08T21:56:55.501Z,85.45
2022-11-08T21:59:23.488Z,85.84
2022-11-08T22:01:51.413Z,85.96
2022-11-08T22:04:19.490Z,85.47
2022-11-08T22:06:49.712Z,85.60
2022-11-08T22:09:17.750Z,85.75
2022-11-08T22:11:46.069Z,85.98
2022-11-08T22:14:14.062Z,85.38
2022-11-08T22:16:42.110Z,85.55
2022-11-08T22:19:10.361Z,85.30
2022-11-08T22:21:39.925Z,85.98
2022-11-08T22:24:21.070Z,86.09
2022-11-08T22:26:51.500Z,85.77
2022-11-08T22:29:20.143Z,86.04
2022-11-08T22:31:49.426Z,85.61
2022-11-08T22:34:17.932Z,86.07
2022-11-08T22:36:46.278Z,85.75
2022-11-08T22:39:22.329Z,85.52
2022-11-08T22:41:52.568Z,85.68
2022-11-08T22:44:21.097Z,85.56
2022-11-08T22:46:51.446Z,85.63
2022-11-08T22:49:19.372Z,85.40
2022-11-08T22:51:47.386Z,85.50
2022-11-08T22:54:35.737Z,85.78
2022-11-08T22:57:04.939Z,85.78
2022-11-08T22:59:32.895Z,85.36
2022-11-08T23:02:02.588Z,85.99
2022-11-08T23:04:30.288Z,85.47
2022-11-08T23:06:58.403Z,85.63
2022-11-08T23:09:26.551Z,85.73
2022-11-08T23:12:13.209Z,85.42
2022-11-08T23:15:00.290Z,85.72
2022-11-08T23:17:28.244Z,85.66
2022-11-08T23:20:14.968Z,85.19
2022-11-08T23:23:01.138Z,85.12
2022-11-08T23:25:29.285Z,85.02
2022-11-08T23:28:15.485Z,85.07
2022-11-08T23:31:02.288Z,85.80
2022-11-08T23:33:30.216Z,85.39
2022-11-08T23:36:15.073Z,85.01
2022-11-08T23:38:44.464Z,85.40
2022-11-08T23:41:31.814Z,84.98
2022-11-08T23:44:18.253Z,85.49
2022-11-08T23:46:47.676Z,85.25
2022-11-08T23:49:15.657Z,84.95
2022-11-08T23:51:44.041Z,85.57
2022-11-08T23:54:12.153Z,85.53
2022-11-08T23:56:40.176Z,85.13
2022-11-08T23:59:08.254Z,84.72
